Time;durP1;ratioP1;P1;durP2;ratioP2;P2;SDS_P1;SDS_P2;PMS_P1;PMS_P2;Temp;Humidity;BMP_temperature;BMP_pressure;BME280_temperature;BME280_humidity;BME280_pressure;Samples;Min_cycle;Max_cycle;Signal;HPM_P1;HPM_P2
2021/04/15 00:02:24;;;;;;;;;;;;;;;4.02;61.23;102930.94;5047732;28;20004;-76
2021/04/15 00:04:49;;;;;;;;;;;;;;;4.00;61.30;102929.25;5050153;28;20333;-76
2021/04/15 00:07:14;;;;;;;;;;;;;;;4.00;61.68;102923.84;5048119;28;19916;-75
2021/04/15 00:09:40;;;;;;;;;;;;;;;4.02;61.99;102926.38;5047961;28;19912;-76
2021/04/15 00:12:06;;;;;;;;;;;;;;;4.01;61.64;102922.03;5048186;28;19931;-76
2021/04/15 00:14:31;;;;;;;;;;;;;;;4.01;62.10;102922.03;5071517;28;19917;-76
2021/04/15 00:16:56;;;;;;;;;;;;;;;4.01;61.87;102919.31;5044366;28;19956;-77
2021/04/15 00:19:21;;;;;;;;;;;;;;;4.03;62.61;102932.63;5048479;28;19912;-77
2021/04/15 00:21:47;;;;;;;;;;;;;;;4.03;62.47;102921.81;5042929;28;19912;-77
2021/04/15 00:24:12;;;;;;;;;;;;;;;4.04;62.68;102927.06;5042579;28;19920;-76
2021/04/15 00:26:37;;;;;;;;;;;;;;;4.05;62.50;102925.19;5084562;28;19909;-76
2021/04/15 00:29:03;;;;;;;;;;;;;;;4.05;62.65;102930.59;5042097;28;20007;-76
2021/04/15 00:31:28;;;;;;;;;;;;;;;4.05;63.18;102925.19;5077582;28;19924;-76
2021/04/15 00:33:53;;;;;;;;;;;;;;;4.05;63.00;102922.50;5042083;28;19958;-76
2021/04/15 00:36:20;;;;;;;;;;;;;;;4.05;63.19;102922.50;5039855;28;19912;-76
2021/04/15 00:38:45;;;;;;;;;;;;;;;4.03;63.66;102922.66;5050282;28;19935;-76
2021/04/15 00:41:10;;;;;;;;;;;;;;;4.02;63.30;102931.78;5085370;28;20460;-76
2021/04/15 00:43:37;;;;;;;;;;;;;;;4.00;63.60;102923.84;5053139;28;19927;-76
2021/04/15 00:46:12;;;;;;;;;;;;;;;3.97;63.26;102924.22;5047142;28;19936;-76
2021/04/15 00:48:44;;;;;;;;;;;;;;;3.97;63.12;102936.88;5052327;28;20385;-76
2021/04/15 00:51:12;;;;;;;;;;;;;;;3.96;63.17;102927.94;5050758;28;19921;-76
2021/04/15 00:53:44;;;;;;;;;;;;;;;3.95;63.37;102928.09;5054180;28;20401;-76
2021/04/15 00:56:09;;;;;;;;;;;;;;;3.95;63.66;102933.50;5053463;28;19959;-76
2021/04/15 00:58:34;;;;;;;;;;;;;;;3.93;63.22;102927.47;5052888;28;19913;-77
2021/04/15 01:01:00;;;;;;;;;;;;;;;3.92;63.41;102931.16;5051856;28;19925;-76
2021/04/15 01:03:25;;;;;;;;;;;;;;;3.91;63.53;102941.13;5053352;28;20290;-76
2021/04/15 01:05:50;;;;;;;;;;;;;;;3.89;63.10;102932.34;5052768;28;19917;-76
2021/04/15 01:08:16;;;;;;;;;;;;;;;3.86;63.07;102930.00;5047043;28;19916;-75
2021/04/15 01:10:42;;;;;;;;;;;;;;;3.85;63.37;102936.44;5075812;28;19955;-76
2021/04/15 01:13:26;;;;;;;;;;;;;;;3.86;62.66;102931.88;5076934;28;19913;-76
2021/04/15 01:15:51;;;;;;;;;;;;;;;3.86;62.97;102937.25;5037849;28;20393;-76
2021/04/15 01:18:19;;;;;;;;;;;;;;;3.85;62.80;102928.34;5050586;28;20004;-76
2021/04/15 01:21:03;;;;;;;;;;;;;;;3.86;62.66;102938.09;5079440;28;20077;-76
2021/04/15 01:23:31;;;;;;;;;;;;;;;3.85;62.37;102933.72;5040214;28;19916;-77
2021/04/15 01:26:15;;;;;;;;;;;;;;;3.85;62.87;102935.59;5045750;28;20270;-76
2021/04/15 01:28:40;;;;;;;;;;;;;;;3.83;62.47;102938.47;5049189;28;19943;-76
2021/04/15 01:31:15;;;;;;;;;;;;;;;3.82;62.69;102931.38;5051266;28;19913;-76
2021/04/15 01:33:41;;;;;;;;;;;;;;;3.82;62.67;102931.38;5047712;28;20360;-77
2021/04/15 01:36:11;;;;;;;;;;;;;;;3.83;62.33;102937.63;5083290;28;19913;-76
2021/04/15 01:38:37;;;;;;;;;;;;;;;3.81;62.28;102934.25;5035836;28;19920;-77
2021/04/15 01:41:11;;;;;;;;;;;;;;;3.81;62.56;102936.94;5046879;28;19912;-77
2021/04/15 01:43:42;;;;;;;;;;;;;;;3.81;62.28;102934.25;5047650;28;20054;-76
2021/04/15 01:46:07;;;;;;;;;;;;;;;3.80;62.65;102938.81;5051318;28;19912;-77
2021/04/15 01:48:42;;;;;;;;;;;;;;;3.83;62.36;102940.31;5050701;28;19924;-77
2021/04/15 01:51:18;;;;;;;;;;;;;;;3.84;62.66;102947.38;5044084;28;19912;-76
2021/04/15 01:53:43;;;;;;;;;;;;;;;3.88;62.41;102951.44;5053448;28;19990;-77
2021/04/15 01:56:13;;;;;;;;;;;;;;;3.91;62.58;102943.81;5044568;28;20015;-77
2021/04/15 01:58:39;;;;;;;;;;;;;;;3.93;62.55;102944.50;5076256;28;20018;-76
2021/04/15 02:01:08;;;;;;;;;;;;;;;3.95;62.07;102952.38;5045464;28;19913;-76
2021/04/15 02:03:37;;;;;;;;;;;;;;;3.97;62.39;102953.91;5043420;28;19913;-76
2021/04/15 02:06:03;;;;;;;;;;;;;;;3.96;62.18;102949.53;5051611;28;19912;-76
2021/04/15 02:08:29;;;;;;;;;;;;;;;4.00;62.22;102956.25;5046382;28;19916;-76
2021/04/15 02:11:21;;;;;;;;;;;;;;;4.03;61.76;102948.81;5052922;28;19913;-76
2021/04/15 02:13:46;;;;;;;;;;;;;;;4.03;61.98;102948.81;5045056;28;20076;-77
2021/04/15 02:16:13;;;;;;;;;;;;;;;4.05;61.83;102965.69;5083857;28;20135;-77
2021/04/15 02:18:48;;;;;;;;;;;;;;;4.03;61.72;102951.50;5045528;28;19928;-77
2021/04/15 02:21:34;;;;;;;;;;;;;;;4.02;61.63;102947.16;5080481;28;20015;-76
2021/04/15 02:24:23;;;;;;;;;;;;;;;3.97;61.60;102953.91;5035399;28;20381;-75
2021/04/15 02:26:48;;;;;;;;;;;;;;;3.96;61.58;102956.78;5045345;28;20004;-76
2021/04/15 02:29:17;;;;;;;;;;;;;;;3.95;61.86;102955.09;5072445;28;19999;-76
2021/04/15 02:31:47;;;;;;;;;;;;;;;3.95;61.72;102958.63;5044313;28;20381;-76
2021/04/15 02:34:23;;;;;;;;;;;;;;;3.95;61.82;102953.22;5045392;28;19913;-76
2021/04/15 02:36:55;;;;;;;;;;;;;;;3.94;61.51;102956.13;5079271;28;19909;-76
2021/04/15 02:39:20;;;;;;;;;;;;;;;3.92;61.41;102955.44;5046348;28;19913;-76
2021/04/15 02:41:45;;;;;;;;;;;;;;;3.88;61.68;102957.66;5045194;28;19916;-77
2021/04/15 02:44:16;;;;;;;;;;;;;;;3.86;61.58;102964.25;5046908;28;19920;-76
2021/04/15 02:46:49;;;;;;;;;;;;;;;3.83;61.88;102961.91;5075129;28;19916;-76
2021/04/15 02:49:15;;;;;;;;;;;;;;;3.81;62.21;102955.84;5047098;28;20302;-76
2021/04/15 02:51:41;;;;;;;;;;;;;;;3.80;61.96;102954.16;5080688;28;19920;-76
2021/04/15 02:54:08;;;;;;;;;;;;;;;3.78;62.10;102965.97;5038405;28;19920;-76
2021/04/15 02:56:46;;;;;;;;;;;;;;;3.77;62.46;102966.16;5043854;28;20386;-76
2021/04/15 02:59:13;;;;;;;;;;;;;;;3.78;62.38;102970.50;5067899;28;19913;-76
2021/04/15 03:01:42;;;;;;;;;;;;;;;3.80;61.99;102975.75;5081310;28;19912;-76
2021/04/15 03:04:10;;;;;;;;;;;;;;;3.78;62.10;102975.91;5046093;28;20293;-76
2021/04/15 03:06:35;;;;;;;;;;;;;;;3.78;62.30;102975.91;5048421;28;19913;-76
2021/04/15 03:09:02;;;;;;;;;;;;;;;3.79;62.39;102972.19;5042125;28;20318;-76
2021/04/15 03:11:31;;;;;;;;;;;;;;;3.77;62.34;102977.78;5065451;28;19919;-76
2021/04/15 03:13:57;;;;;;;;;;;;;;;3.75;62.32;102978.97;5080133;28;20370;-76
2021/04/15 03:16:26;;;;;;;;;;;;;;;3.73;62.54;102976.44;5045802;28;20007;-76
2021/04/15 03:19:01;;;;;;;;;;;;;;;3.75;62.12;102973.56;5044336;28;19958;-76
2021/04/15 03:21:29;;;;;;;;;;;;;;;3.73;62.19;102983.69;5051305;28;19920;-76
2021/04/15 03:23:55;;;;;;;;;;;;;;;3.71;62.21;102973.09;5040798;28;19991;-76
2021/04/15 03:26:21;;;;;;;;;;;;;;;3.71;62.65;102974.91;5045343;28;19947;-76
2021/04/15 03:28:59;;;;;;;;;;;;;;;3.69;62.15;102972.41;5045172;28;19959;-76
2021/04/15 03:31:25;;;;;;;;;;;;;;;3.68;62.40;102984.22;5050551;28;19919;-77
2021/04/15 03:33:52;;;;;;;;;;;;;;;3.67;62.45;102976.28;5045029;28;19999;-76
2021/04/15 03:36:37;;;;;;;;;;;;;;;3.68;62.45;102976.13;5083554;28;19943;-76
2021/04/15 03:39:05;;;;;;;;;;;;;;;3.70;62.36;102976.78;5043422;28;19959;-76
2021/04/15 03:41:33;;;;;;;;;;;;;;;3.71;62.05;102977.63;5073808;28;19920;-76
2021/04/15 03:44:19;;;;;;;;;;;;;;;3.70;62.13;102975.94;5043281;28;19920;-76
2021/04/15 03:47:14;;;;;;;;;;;;;;;3.68;62.25;102977.97;5042573;28;19919;-76
2021/04/15 03:49:39;;;;;;;;;;;;;;;3.69;62.32;102977.81;5049517;28;19939;-76
2021/04/15 03:52:05;;;;;;;;;;;;;;;3.70;62.53;102975.94;5049260;28;20366;-76
2021/04/15 03:54:35;;;;;;;;;;;;;;;3.70;62.33;102984.88;5050103;28;19919;-77
2021/04/15 03:57:02;;;;;;;;;;;;;;;3.69;62.36;102985.91;5038473;28;20003;-76
2021/04/15 03:59:43;;;;;;;;;;;;;;;3.68;62.62;102986.06;5081331;28;20282;-77
2021/04/15 04:02:11;;;;;;;;;;;;;;;3.65;62.48;102995.34;5036104;28;19920;-77
2021/04/15 04:04:37;;;;;;;;;;;;;;;3.63;62.52;102988.44;5070076;28;19964;-77
2021/04/15 04:07:15;;;;;;;;;;;;;;;3.60;63.14;102995.03;5049491;28;19909;-77
2021/04/15 04:09:41;;;;;;;;;;;;;;;3.58;63.08;102993.53;5044890;28;19950;-77
2021/04/15 04:12:12;;;;;;;;;;;;;;;3.55;63.23;102994.72;5046858;28;20382;-77
2021/04/15 04:14:58;;;;;;;;;;;;;;;3.51;63.16;102991.50;5049925;28;19909;-77
2021/04/15 04:17:35;;;;;;;;;;;;;;;3.48;63.44;102994.53;5075317;28;20401;-77
2021/04/15 04:20:00;;;;;;;;;;;;;;;3.45;63.07;102994.91;5033676;28;19921;-77
2021/04/15 04:22:28;;;;;;;;;;;;;;;3.40;63.12;102989.16;5044165;28;19960;-77
2021/04/15 04:25:14;;;;;;;;;;;;;;;3.37;63.31;103000.31;5030243;28;20000;-77
2021/04/15 04:27:54;;;;;;;;;;;;;;;3.32;63.88;102999.97;5041194;28;20405;-77
2021/04/15 04:30:28;;;;;;;;;;;;;;;3.30;63.11;102999.28;5041038;28;19916;-77
2021/04/15 04:32:54;;;;;;;;;;;;;;;3.29;63.95;102998.47;5035915;28;20369;-77
2021/04/15 04:35:20;;;;;;;;;;;;;;;3.30;63.85;103002.00;5036801;28;19913;-76
2021/04/15 04:37:47;;;;;;;;;;;;;;;3.30;63.51;103002.84;5082378;28;20046;-76
2021/04/15 04:40:15;;;;;;;;;;;;;;;3.28;63.41;103002.19;5042957;28;19916;-77
2021/04/15 04:42:41;;;;;;;;;;;;;;;3.25;63.09;103007.91;5030729;28;19913;-77
2021/04/15 04:45:08;;;;;;;;;;;;;;;3.24;63.69;103008.06;5039426;28;19912;-78
2021/04/15 04:47:47;;;;;;;;;;;;;;;3.24;63.09;103008.91;5081211;28;19989;-77
2021/04/15 04:50:31;;;;;;;;;;;;;;;3.26;63.71;103011.44;5040505;28;19978;-77
2021/04/15 04:52:57;;;;;;;;;;;;;;;3.24;63.02;103008.06;5033222;28;19913;-77
2021/04/15 04:55:40;;;;;;;;;;;;;;;3.24;63.67;103010.78;5049601;28;20361;-77
2021/04/15 04:58:15;;;;;;;;;;;;;;;3.26;63.08;103023.06;5036953;28;19922;-78
2021/04/15 05:00:42;;;;;;;;;;;;;;;3.25;63.16;103020.56;5044264;28;19920;-77
2021/04/15 05:03:07;;;;;;;;;;;;;;;3.28;63.44;103017.53;5036621;28;19921;-76
2021/04/15 05:05:32;;;;;;;;;;;;;;;3.30;63.42;103021.72;5083502;28;20370;-76
2021/04/15 05:08:09;;;;;;;;;;;;;;;3.32;63.37;103024.25;5042514;28;19951;-79
2021/04/15 05:10:34;;;;;;;;;;;;;;;3.35;63.12;103029.28;5041624;28;19913;-78
2021/04/15 05:13:04;;;;;;;;;;;;;;;3.37;63.25;103024.56;5080803;28;19919;-77
2021/04/15 05:15:29;;;;;;;;;;;;;;;3.39;63.42;103033.34;5069872;28;19912;-77
2021/04/15 05:17:55;;;;;;;;;;;;;;;3.42;63.34;103032.16;5048639;28;19924;-77
2021/04/15 05:20:24;;;;;;;;;;;;;;;3.44;63.06;103030.97;5040956;28;19920;-77
2021/04/15 05:22:52;;;;;;;;;;;;;;;3.47;62.62;103029.78;5051303;28;20013;-77
2021/04/15 05:25:26;;;;;;;;;;;;;;;3.50;63.05;103035.69;5050176;28;19923;-78
2021/04/15 05:27:51;;;;;;;;;;;;;;;3.50;63.06;103041.06;5074114;28;20285;-78
2021/04/15 05:30:22;;;;;;;;;;;;;;;3.55;62.91;103044.09;5053459;28;19916;-78
2021/04/15 05:32:47;;;;;;;;;;;;;;;3.59;63.30;103038.38;5041183;28;19982;-78
2021/04/15 05:35:16;;;;;;;;;;;;;;;3.61;62.79;103049.84;5039717;28;19916;-79
2021/04/15 05:37:41;;;;;;;;;;;;;;;3.65;62.62;103052.00;5050009;28;19920;-79
2021/04/15 05:40:07;;;;;;;;;;;;;;;3.68;62.47;103048.97;5045015;28;19923;-79
2021/04/15 05:42:33;;;;;;;;;;;;;;;3.71;62.93;103048.63;5079581;28;19924;-78
2021/04/15 05:45:06;;;;;;;;;;;;;;;3.75;62.49;103047.25;5085057;28;19942;-75
2021/04/15 05:47:53;;;;;;;;;;;;;;;3.80;62.72;103049.44;5069518;28;20536;-76
2021/04/15 05:50:26;;;;;;;;;;;;;;;3.86;62.43;103054.13;5040879;28;19916;-77
2021/04/15 05:52:53;;;;;;;;;;;;;;;3.93;62.30;103052.44;5036849;28;19924;-76
2021/04/15 05:55:25;;;;;;;;;;;;;;;3.97;62.46;103045.66;5052298;28;19958;-77
2021/04/15 05:57:53;;;;;;;;;;;;;;;4.00;62.23;103057.97;5085025;28;20015;-77
2021/04/15 06:00:38;;;;;;;;;;;;;;;4.03;62.55;103059.47;5046986;28;19958;-77
2021/04/15 06:03:07;;;;;;;;;;;;;;;4.07;62.09;103058.97;5033662;28;19916;-77
2021/04/15 06:05:37;;;;;;;;;;;;;;;4.14;62.11;103065.34;5048778;28;19923;-77
2021/04/15 06:08:03;;;;;;;;;;;;;;;4.16;62.12;103068.72;5048474;28;20437;-77
2021/04/15 06:10:30;;;;;;;;;;;;;;;4.20;62.20;103063.78;5046003;28;20171;-76
2021/04/15 06:13:04;;;;;;;;;;;;;;;4.23;62.18;103074.28;5043155;28;19982;-76
2021/04/15 06:15:31;;;;;;;;;;;;;;;4.27;62.02;103067.50;5047829;28;19912;-76
2021/04/15 06:17:58;;;;;;;;;;;;;;;4.32;62.46;103078.59;5040456;28;19913;-78
2021/04/15 06:20:32;;;;;;;;;;;;;;;4.34;62.46;103065.78;5082677;28;19951;-78
2021/04/15 06:22:58;;;;;;;;;;;;;;;4.38;62.07;103077.91;5045902;28;20151;-77
2021/04/15 06:25:30;;;;;;;;;;;;;;;4.43;62.14;103075.50;5049644;28;19912;-76
2021/04/15 06:28:01;;;;;;;;;;;;;;;4.50;62.24;103077.50;5049626;28;19912;-78
2021/04/15 06:30:29;;;;;;;;;;;;;;;4.57;62.18;103078.47;5031827;28;20333;-78
2021/04/15 06:32:56;;;;;;;;;;;;;;;4.63;62.42;103080.47;5036356;28;19913;-79
2021/04/15 06:35:25;;;;;;;;;;;;;;;4.68;61.95;103084.31;5076627;28;19917;-78
2021/04/15 06:37:54;;;;;;;;;;;;;;;4.74;61.79;103080.06;5048279;28;19913;-78
2021/04/15 06:40:39;;;;;;;;;;;;;;;4.79;61.90;103080.38;5070611;28;19916;-78
2021/04/15 06:43:11;;;;;;;;;;;;;;;4.84;61.84;103087.94;5051286;28;20009;-78
2021/04/15 06:45:39;;;;;;;;;;;;;;;4.88;61.92;103079.31;5046478;28;19936;-78
2021/04/15 06:48:10;;;;;;;;;;;;;;;4.93;61.66;103086.03;5051329;28;19924;-78
2021/04/15 06:50:53;;;;;;;;;;;;;;;4.93;61.78;103086.88;5051941;28;20007;-78
2021/04/15 06:53:22;;;;;;;;;;;;;;;4.93;61.98;103088.72;5052455;28;20424;-78
2021/04/15 06:55:56;;;;;;;;;;;;;;;4.94;61.87;103082.28;5046708;28;19920;-76
2021/04/15 06:58:34;;;;;;;;;;;;;;;4.98;61.91;103084.47;5051998;28;20259;-77
2021/04/15 07:01:19;;;;;;;;;;;;;;;5.01;61.93;103091.38;5047116;28;20352;-76
2021/04/15 07:03:48;;;;;;;;;;;;;;;5.07;61.83;103079.84;5042954;28;19912;-76
2021/04/15 07:06:19;;;;;;;;;;;;;;;5.16;61.53;103081.47;5048340;28;19918;-76
2021/04/15 07:08:47;;;;;;;;;;;;;;;5.23;61.50;103081.56;5047083;28;20023;-76
2021/04/15 07:11:32;;;;;;;;;;;;;;;5.32;61.58;103083.22;5049358;28;19916;-76
2021/04/15 07:14:01;;;;;;;;;;;;;;;5.39;61.59;103083.31;5050134;28;19912;-75
2021/04/15 07:16:40;;;;;;;;;;;;;;;5.47;61.42;103080.53;5045122;28;19912;-76
2021/04/15 07:19:13;;;;;;;;;;;;;;;5.54;61.42;103082.31;5078926;28;19999;-75
2021/04/15 07:21:57;;;;;;;;;;;;;;;5.65;61.17;103080.19;5044840;28;19912;-75
2021/04/15 07:24:27;;;;;;;;;;;;;;;5.66;61.10;103082.72;5042103;28;19975;-75
2021/04/15 07:26:54;;;;;;;;;;;;;;;5.70;61.20;103081.31;5049726;28;19925;-76
2021/04/15 07:29:22;;;;;;;;;;;;;;;5.75;61.13;103083.47;5072357;28;19966;-76
2021/04/15 07:32:06;;;;;;;;;;;;;;;5.85;60.99;103085.91;5074373;28;19920;-76
2021/04/15 07:34:41;;;;;;;;;;;;;;;5.93;60.90;103085.81;5049925;28;19923;-76
2021/04/15 07:37:08;;;;;;;;;;;;;;;6.02;60.63;103081.19;5048101;28;19915;-75
2021/04/15 07:39:34;;;;;;;;;;;;;;;6.11;60.57;103085.47;5048855;28;19913;-76
2021/04/15 07:41:59;;;;;;;;;;;;;;;6.19;60.58;103086.22;5049685;28;20420;-76
2021/04/15 07:44:32;;;;;;;;;;;;;;;6.27;60.43;103092.56;5048638;28;19916;-76
2021/04/15 07:47:16;;;;;;;;;;;;;;;6.35;60.25;103095.16;5078844;28;19921;-76
2021/04/15 07:50:00;;;;;;;;;;;;;;;6.44;60.13;103103.00;5043765;28;20243;-76
2021/04/15 07:52:45;;;;;;;;;;;;;;;6.52;60.17;103099.38;5045210;28;20080;-76
2021/04/15 07:55:29;;;;;;;;;;;;;;;6.59;59.89;103102.97;5074863;28;20003;-76
2021/04/15 07:58:06;;;;;;;;;;;;;;;6.67;59.82;103105.56;5048809;28;19913;-76
2021/04/15 08:00:43;;;;;;;;;;;;;;;6.76;59.55;103108.16;5038994;28;19999;-77
2021/04/15 08:03:42;;;;;;;;;;;;;;;6.84;59.36;103108.88;5044878;28;19909;-76
2021/04/15 08:06:13;;;;;;;;;;;;;;;6.95;59.28;103114.84;5045223;28;20000;-77
2021/04/15 08:08:41;;;;;;;;;;;;;;;7.06;59.17;103115.16;5039438;28;20040;-77
2021/04/15 08:11:25;;;;;;;;;;;;;;;7.18;58.80;103114.69;5048720;28;20415;-78
2021/04/15 08:14:00;;;;;;;;;;;;;;;7.29;58.84;103119.59;5047745;28;20269;-77
2021/04/15 08:16:44;;;;;;;;;;;;;;;7.38;58.72;103121.13;5043958;28;19913;-81
2021/04/15 08:19:29;;;;;;;;;;;;;;;7.51;58.53;103115.81;5042750;28;19916;-81
2021/04/15 08:22:01;;;;;;;;;;;;;;;7.61;57.97;103114.63;5070786;28;19916;-81
2021/04/15 08:24:30;;;;;;;;;;;;;;;7.74;57.72;103112.00;5039203;28;19913;-80
2021/04/15 08:27:14;;;;;;;;;;;;;;;7.87;57.71;103109.38;5076976;28;19913;-80
2021/04/15 08:29:57;;;;;;;;;;;;;;;8.00;57.31;103111.38;5035894;28;19924;-81
2021/04/15 08:32:29;;;;;;;;;;;;;;;8.13;57.54;103107.88;5079453;28;19927;-81
2021/04/15 08:34:57;;;;;;;;;;;;;;;8.29;57.34;103112.13;5043384;28;20034;-80
2021/04/15 08:37:42;;;;;;;;;;;;;;;8.42;57.11;103118.50;5047422;28;20003;-81
2021/04/15 08:40:07;;;;;;;;;;;;;;;8.52;56.72;103120.03;5045726;28;19999;-80
2021/04/15 08:42:38;;;;;;;;;;;;;;;8.55;56.29;103112.31;5051420;28;20396;-81
2021/04/15 08:45:22;;;;;;;;;;;;;;;8.58;55.98;103120.03;5043517;28;21399;-80
2021/04/15 08:48:01;;;;;;;;;;;;;;;8.69;55.70;103113.19;5048226;28;20015;-81
2021/04/15 08:50:45;;;;;;;;;;;;;;;8.83;55.78;103116.78;5047204;28;19917;-81
2021/04/15 08:53:34;;;;;;;;;;;;;;;8.96;55.41;103118.72;5046508;28;19916;-81
2021/04/15 08:56:26;;;;;;;;;;;;;;;9.07;55.21;103115.38;5070254;28;20370;-81
2021/04/15 08:59:04;;;;;;;;;;;;;;;9.28;54.64;103114.38;5047568;28;19921;-82
2021/04/15 09:01:58;;;;;;;;;;;;;;;9.29;54.03;103108.72;5052156;28;19917;-82
2021/04/15 09:04:30;;;;;;;;;;;;;;;9.34;54.00;103117.09;5059308;28;20287;-80
2021/04/15 09:07:12;;;;;;;;;;;;;;;9.44;53.40;103110.38;5082835;28;20112;-81
2021/04/15 09:09:49;;;;;;;;;;;;;;;9.53;53.07;103109.16;5042634;28;20363;-80
2021/04/15 09:12:21;;;;;;;;;;;;;;;9.61;52.79;103111.66;5044698;28;19912;-81
2021/04/15 09:14:58;;;;;;;;;;;;;;;9.68;52.49;103109.75;5049343;28;19912;-80
2021/04/15 09:17:30;;;;;;;;;;;;;;;9.84;52.67;103105.75;5074005;28;20016;-80
2021/04/15 09:20:08;;;;;;;;;;;;;;;10.06;52.82;103102.78;5077192;28;19920;-81
2021/04/15 09:22:52;;;;;;;;;;;;;;;10.22;52.53;103094.97;5052805;28;19929;-79
2021/04/15 09:25:17;;;;;;;;;;;;;;;10.34;52.08;103097.06;5045878;28;19967;-80
2021/04/15 09:27:43;;;;;;;;;;;;;;;10.47;51.92;103099.75;5047030;28;19913;-80
2021/04/15 09:30:17;;;;;;;;;;;;;;;10.60;51.69;103098.84;5048861;28;20290;-78
2021/04/15 09:32:51;;;;;;;;;;;;;;;10.74;51.47;103099.63;5050127;28;19967;-78
2021/04/15 09:35:35;;;;;;;;;;;;;;;10.89;51.16;103091.97;5084680;28;19912;-78
2021/04/15 09:38:08;;;;;;;;;;;;;;;10.95;50.57;103093.81;5047302;28;20436;-79
2021/04/15 09:40:52;;;;;;;;;;;;;;;10.96;50.14;103098.22;5042091;28;20605;-79
2021/04/15 09:43:20;;;;;;;;;;;;;;;10.97;49.85;103093.63;5044774;28;19913;-78
2021/04/15 09:45:49;;;;;;;;;;;;;;;11.05;49.76;103090.63;5047274;28;20333;-77
2021/04/15 09:48:18;;;;;;;;;;;;;;;11.19;49.81;103088.63;5043090;28;19939;-78
2021/04/15 09:50:47;;;;;;;;;;;;;;;11.27;49.52;103082.91;5040624;28;20641;-78
2021/04/15 09:53:25;;;;;;;;;;;;;;;11.30;48.89;103088.75;5061143;28;19924;-79
2021/04/15 09:56:09;;;;;;;;;;;;;;;11.42;48.68;103090.75;5047131;28;19917;-81
2021/04/15 09:59:10;;;;;;;;;;;;;;;11.52;48.52;103086.47;5048213;28;19920;-79
2021/04/15 10:01:36;;;;;;;;;;;;;;;11.66;48.22;103078.97;5002046;28;19914;-78
2021/04/15 10:04:04;;;;;;;;;;;;;;;11.80;48.14;103079.69;5035660;28;20362;-76
2021/04/15 10:06:33;;;;;;;;;;;;;;;11.96;47.89;103084.59;5046473;28;20464;-76
2021/04/15 10:09:11;;;;;;;;;;;;;;;12.03;47.38;103078.22;5047369;28;19994;-77
2021/04/15 10:11:42;;;;;;;;;;;;;;;12.08;47.03;103078.38;5044324;28;19917;-77
2021/04/15 10:14:27;;;;;;;;;;;;;;;12.17;46.92;103082.47;5051625;28;19913;-76
2021/04/15 10:17:10;;;;;;;;;;;;;;;12.26;46.93;103078.38;5047546;28;20370;-76
2021/04/15 10:19:54;;;;;;;;;;;;;;;12.44;46.57;103083.00;5050484;28;19913;-77
2021/04/15 10:22:29;;;;;;;;;;;;;;;12.60;46.11;103076.03;5050477;28;20317;-76
2021/04/15 10:24:56;;;;;;;;;;;;;;;12.77;45.92;103071.59;5044378;28;20702;-77
2021/04/15 10:27:30;;;;;;;;;;;;;;;12.89;45.44;103071.63;5046122;28;19912;-77
2021/04/15 10:29:58;;;;;;;;;;;;;;;12.98;45.00;103072.13;5045187;28;19928;-76
2021/04/15 10:32:23;;;;;;;;;;;;;;;13.13;45.18;103068.97;5051488;28;20007;-77
2021/04/15 10:35:04;;;;;;;;;;;;;;;13.23;44.71;103069.19;5048595;28;20499;-77
2021/04/15 10:37:41;;;;;;;;;;;;;;;13.26;44.55;103060.56;5048866;28;19912;-76
2021/04/15 10:40:23;;;;;;;;;;;;;;;13.38;44.49;103061.38;5043486;28;20362;-75
2021/04/15 10:43:01;;;;;;;;;;;;;;;13.45;44.22;103055.78;5044796;28;19913;-77
2021/04/15 10:45:26;;;;;;;;;;;;;;;13.57;43.98;103058.56;5048133;28;19912;-77
2021/04/15 10:48:10;;;;;;;;;;;;;;;13.68;43.54;103055.78;5048155;28;19920;-77
2021/04/15 10:50:55;;;;;;;;;;;;;;;13.72;43.21;103051.53;5044207;28;19924;-77
2021/04/15 10:53:38;;;;;;;;;;;;;;;13.84;43.04;103053.41;5044948;28;19913;-77
2021/04/15 10:56:05;;;;;;;;;;;;;;;13.97;42.53;103058.63;5043010;28;19913;-77
2021/04/15 10:58:37;;;;;;;;;;;;;;;14.06;42.12;103043.47;5042091;28;19985;-77
2021/04/15 11:01:18;;;;;;;;;;;;;;;14.08;41.31;103049.56;5046644;28;20393;-77
2021/04/15 11:03:43;;;;;;;;;;;;;;;14.24;41.42;103039.72;5048334;28;19917;-77
2021/04/15 11:06:10;;;;;;;;;;;;;;;14.50;41.02;103042.97;5048286;28;19919;-77
2021/04/15 11:08:35;;;;;;;;;;;;;;;14.68;41.00;103041.94;5048481;28;19920;-77
2021/04/15 11:11:28;;;;;;;;;;;;;;;14.84;40.57;103050.25;5048894;28;19982;-77
2021/04/15 11:14:02;;;;;;;;;;;;;;;14.96;40.23;103038.34;5052581;28;19917;-77
2021/04/15 11:16:27;;;;;;;;;;;;;;;15.08;39.98;103036.34;5049602;28;19913;-77
2021/04/15 11:18:53;;;;;;;;;;;;;;;15.24;39.82;103034.69;5042934;28;19931;-76
2021/04/15 11:21:24;;;;;;;;;;;;;;;15.36;39.56;103040.09;5048287;28;19917;-76
2021/04/15 11:23:50;;;;;;;;;;;;;;;15.40;38.47;103033.03;5045008;28;19963;-76
2021/04/15 11:26:17;;;;;;;;;;;;;;;15.33;37.82;103038.69;5049302;28;20324;-76
2021/04/15 11:28:42;;;;;;;;;;;;;;;15.42;37.63;103026.19;5048824;28;19974;-76
2021/04/15 11:31:10;;;;;;;;;;;;;;;15.64;37.72;103029.00;5048707;28;19960;-77
2021/04/15 11:33:42;;;;;;;;;;;;;;;15.92;37.65;103035.44;5050717;28;19912;-77
2021/04/15 11:36:20;;;;;;;;;;;;;;;16.24;37.70;103032.81;5048423;28;20321;-74
2021/04/15 11:38:46;;;;;;;;;;;;;;;16.39;37.07;103032.97;5048856;28;19913;-74
2021/04/15 11:41:16;;;;;;;;;;;;;;;16.53;37.12;103035.34;5076747;28;19912;-74
2021/04/15 11:43:41;;;;;;;;;;;;;;;16.75;37.02;103030.63;5051116;28;19909;-74
2021/04/15 11:46:29;;;;;;;;;;;;;;;16.82;35.92;103027.66;5048305;28;19913;-74
2021/04/15 11:49:05;;;;;;;;;;;;;;;16.72;35.22;103022.84;5049763;28;19995;-74
2021/04/15 11:51:41;;;;;;;;;;;;;;;16.45;34.57;103020.13;5049064;28;19928;-74
2021/04/15 11:54:13;;;;;;;;;;;;;;;16.32;33.73;103021.34;5071197;28;20392;-74
2021/04/15 11:56:38;;;;;;;;;;;;;;;16.16;33.79;103027.78;5074299;28;19956;-74
2021/04/15 11:59:20;;;;;;;;;;;;;;;16.34;33.77;103026.59;5047234;28;19963;-75
2021/04/15 12:01:46;;;;;;;;;;;;;;;16.76;33.98;103018.50;5025934;28;19951;-75
2021/04/15 12:04:23;;;;;;;;;;;;;;;17.11;33.02;103019.94;5051819;28;20281;-74
2021/04/15 12:06:49;;;;;;;;;;;;;;;17.05;32.43;103015.47;5043692;28;20035;-74
2021/04/15 12:09:15;;;;;;;;;;;;;;;16.55;32.56;103011.13;5042820;28;19963;-75
2021/04/15 12:11:44;;;;;;;;;;;;;;;16.05;32.60;103003.97;5047335;28;19912;-75
2021/04/15 12:14:10;;;;;;;;;;;;;;;16.36;32.72;103014.22;5081846;28;19928;-74
2021/04/15 12:16:53;;;;;;;;;;;;;;;16.93;32.49;103009.31;5072295;28;20027;-74
2021/04/15 12:19:24;;;;;;;;;;;;;;;17.51;31.88;103002.00;5049123;28;20362;-74
2021/04/15 12:21:59;;;;;;;;;;;;;;;17.89;31.31;103000.84;5049794;28;20317;-74
2021/04/15 12:24:27;;;;;;;;;;;;;;;17.67;31.48;103002.94;5075160;28;20003;-74
2021/04/15 12:26:53;;;;;;;;;;;;;;;17.45;31.73;102992.88;5045670;28;20097;-74
2021/04/15 12:29:18;;;;;;;;;;;;;;;17.80;31.51;102999.72;5077588;28;20396;-74
2021/04/15 12:32:04;;;;;;;;;;;;;;;18.11;30.97;102995.13;5048039;28;19912;-74
2021/04/15 12:34:29;;;;;;;;;;;;;;;17.85;30.58;102996.97;5045359;28;19913;-74
2021/04/15 12:36:56;;;;;;;;;;;;;;;18.23;30.56;102996.84;5049679;28;19939;-73
2021/04/15 12:39:23;;;;;;;;;;;;;;;18.48;30.39;102993.31;5079904;28;20277;-72
2021/04/15 12:41:48;;;;;;;;;;;;;;;18.93;30.60;103000.81;5053218;28;20029;-73
2021/04/15 12:44:22;;;;;;;;;;;;;;;19.48;30.41;102996.34;5050902;28;20371;-73
2021/04/15 12:46:47;;;;;;;;;;;;;;;19.83;29.87;102986.28;5052872;28;20440;-73
2021/04/15 12:49:15;;;;;;;;;;;;;;;19.70;30.48;102992.44;5051384;28;19974;-73
2021/04/15 12:51:47;;;;;;;;;;;;;;;19.82;30.15;102990.16;5053970;28;19963;-73
2021/04/15 12:54:13;;;;;;;;;;;;;;;19.53;29.59;102987.19;5054108;28;19928;-73
2021/04/15 12:56:40;;;;;;;;;;;;;;;19.64;29.30;102982.44;5053029;28;20011;-73
2021/04/15 12:59:05;;;;;;;;;;;;;;;20.13;28.76;102984.47;5052709;28;20423;-73
2021/04/15 13:01:34;;;;;;;;;;;;;;;20.40;28.67;102982.09;5053605;28;20000;-74
2021/04/15 13:04:11;;;;;;;;;;;;;;;20.73;28.21;102978.84;5051360;28;20377;-73
2021/04/15 13:06:55;;;;;;;;;;;;;;;21.12;27.69;102981.56;5078650;28;20274;-71
2021/04/15 13:09:24;;;;;;;;;;;;;;;21.46;27.41;102975.13;5051214;28;19917;-72